Atlantic City, NJ

1:28 AM EDT on October 21, 2014 (GMT -0400)
Brigantine DPW | Change Station
CLOSE
Current Station
Personal Weather Station
Location: Brigantine, NJ
Elevation: 16 ft
Nearby Weather Stations

Elev 16 ft 39.39 °N, 74.39 °W | Updated 13 minutes ago

Partly Cloudy
Partly Cloudy
61.7 °F
Feels Like 61.7 °F
N
2.0
Wind Variable Wind from SW
Gusts 6.0 mph

Today
High -- | Low -- °F
--% Chance of Precip.
Yesterday
High -- | Low -- °F
Precip. -- in
7:13 AM 6:10 PM
Waning Crescent, 7% visible
Pressure 29.96 in
Visibility 10.0 miles
Clouds Clear
Dew Point 51 °F
Humidity 67%
Rainfall 0.00 in
Snow Depth Not available.
UV 0.0 out of 12
Pollen 1.00 out of 12
Air Quality Not available.
Flu Activity Sporadic
METAR KACY 210454Z 18004KT 10SM CLR 13/08 A2996 RMK AO2 SLP144 T01280078 401721011

More Conditions Fewer Conditions

Pressure 29.96 in
Visibility 10.0 miles
Clouds Clear
Dew Point 51 °F
Humidity 67%
Rainfall 0.00 in
Snow Depth Not available.
UV 0.0 out of 12
Pollen 1.00 out of 12
Air Quality Not available.
Flu Activity Sporadic
METAR KACY 210454Z 18004KT 10SM CLR 13/08 A2996 RMK AO2 SLP144 T01280078 401721011

More Conditions Fewer Conditions

10-Day Weather Forecast

Almanac

Astronomy

Oct. 21, 2014 Rise Set
Actual Time 7:13 AM EDT 6:10 PM EDT
Civil Twilight 6:46 AM EDT 6:37 PM EDT
Nautical Twilight 6:15 AM EDT 7:08 PM EDT
Astronomical Twilight 5:44 AM EDT 7:39 PM EDT
Moon 4:56 AM EDT 5:02 PM EDT
Length of Visible Light 11h 51m
Length of Day
10h 56m
Tomorrow will be 2m 24s shorter.
Waning Crescent, 7% of the Moon is Illuminated
Today
Waning Crescent
Oct 23
New
Oct 30
First Quarter
Nov 6
Full
Nov 14
Last Quarter

Today's Extremes

State Highs State Lows

Community

WunderPhotos

Upload Photos

1,763,612 photos uploaded!

Nearby

Snow Depth

Station Depth Elevation
No new snow has been reported.

Earthquake Activity

City Distance Mag. Time & Date
No recent earthquake activity has been reported nearby.
Minimum magnitude displayed is 2.5.

Coastal Water Temperatures

Place Temperature
Atlantic City, NJ 63.0 °F

Nearby Weather Stations